sensor_id;sensor_type;location;lat;lon;timestamp;P1;durP1;ratioP1;P2;durP2;ratioP2
70800;SDS011;59616;52.170;5.386;2022-11-18T00:01:33;8.60;;;2.63;;
70800;SDS011;59616;52.170;5.386;2022-11-18T00:04:00;9.23;;;2.70;;
70800;SDS011;59616;52.170;5.386;2022-11-18T00:06:28;7.88;;;2.28;;
70800;SDS011;59616;52.170;5.386;2022-11-18T00:08:56;8.75;;;2.55;;
70800;SDS011;59616;52.170;5.386;2022-11-18T00:11:25;8.65;;;2.22;;
70800;SDS011;59616;52.170;5.386;2022-11-18T00:14:15;5.85;;;2.28;;
70800;SDS011;59616;52.170;5.386;2022-11-18T00:16:50;7.95;;;2.35;;
70800;SDS011;59616;52.170;5.386;2022-11-18T00:19:18;7.45;;;2.00;;
70800;SDS011;59616;52.170;5.386;2022-11-18T00:21:46;6.18;;;2.30;;
70800;SDS011;59616;52.170;5.386;2022-11-18T00:24:13;9.52;;;2.35;;
70800;SDS011;59616;52.170;5.386;2022-11-18T00:26:40;8.13;;;2.50;;
70800;SDS011;59616;52.170;5.386;2022-11-18T00:29:08;7.15;;;2.60;;
70800;SDS011;59616;52.170;5.386;2022-11-18T00:31:36;10.25;;;2.47;;
70800;SDS011;59616;52.170;5.386;2022-11-18T00:34:03;7.65;;;2.17;;
70800;SDS011;59616;52.170;5.386;2022-11-18T00:36:31;7.15;;;2.30;;
70800;SDS011;59616;52.170;5.386;2022-11-18T00:38:58;8.38;;;2.45;;
70800;SDS011;59616;52.170;5.386;2022-11-18T00:41:25;7.07;;;2.30;;
70800;SDS011;59616;52.170;5.386;2022-11-18T00:44:12;7.88;;;2.40;;
70800;SDS011;59616;52.170;5.386;2022-11-18T00:46:39;7.82;;;2.20;;
70800;SDS011;59616;52.170;5.386;2022-11-18T00:49:07;8.55;;;2.38;;
70800;SDS011;59616;52.170;5.386;2022-11-18T00:51:34;8.07;;;2.35;;
70800;SDS011;59616;52.170;5.386;2022-11-18T00:54:02;8.57;;;2.17;;
70800;SDS011;59616;52.170;5.386;2022-11-18T00:56:29;9.40;;;2.35;;
70800;SDS011;59616;52.170;5.386;2022-11-18T00:58:57;9.27;;;2.30;;
70800;SDS011;59616;52.170;5.386;2022-11-18T01:01:24;6.25;;;2.53;;
70800;SDS011;59616;52.170;5.386;2022-11-18T01:03:51;7.15;;;2.55;;
70800;SDS011;59616;52.170;5.386;2022-11-18T01:06:19;10.80;;;2.60;;
70800;SDS011;59616;52.170;5.386;2022-11-18T01:08:46;5.60;;;2.15;;
70800;SDS011;59616;52.170;5.386;2022-11-18T01:11:13;7.97;;;2.65;;
70800;SDS011;59616;52.170;5.386;2022-11-18T01:13:59;10.00;;;2.38;;
70800;SDS011;59616;52.170;5.386;2022-11-18T01:16:26;9.88;;;2.72;;
70800;SDS011;59616;52.170;5.386;2022-11-18T01:18:54;10.35;;;2.80;;
70800;SDS011;59616;52.170;5.386;2022-11-18T01:21:22;10.43;;;2.72;;
70800;SDS011;59616;52.170;5.386;2022-11-18T01:23:49;10.43;;;3.13;;
70800;SDS011;59616;52.170;5.386;2022-11-18T01:26:16;10.50;;;2.72;;
70800;SDS011;59616;52.170;5.386;2022-11-18T01:28:44;7.63;;;2.42;;
70800;SDS011;59616;52.170;5.386;2022-11-18T01:31:15;7.82;;;2.70;;
70800;SDS011;59616;52.170;5.386;2022-11-18T01:33:43;7.60;;;2.40;;
70800;SDS011;59616;52.170;5.386;2022-11-18T01:36:15;10.02;;;2.92;;
70800;SDS011;59616;52.170;5.386;2022-11-18T01:38:42;8.65;;;2.28;;
70800;SDS011;59616;52.170;5.386;2022-11-18T01:41:09;7.88;;;2.50;;
70800;SDS011;59616;52.170;5.386;2022-11-18T01:46:16;8.38;;;2.42;;
70800;SDS011;59616;52.170;5.386;2022-11-18T01:48:44;9.98;;;2.63;;
70800;SDS011;59616;52.170;5.386;2022-11-18T01:51:14;6.82;;;2.55;;
70800;SDS011;59616;52.170;5.386;2022-11-18T01:54:04;10.32;;;2.80;;
70800;SDS011;59616;52.170;5.386;2022-11-18T01:56:36;9.05;;;2.70;;
70800;SDS011;59616;52.170;5.386;2022-11-18T01:59:06;6.85;;;2.47;;
70800;SDS011;59616;52.170;5.386;2022-11-18T02:01:35;8.18;;;2.67;;
70800;SDS011;59616;52.170;5.386;2022-11-18T02:04:02;6.78;;;2.25;;
70800;SDS011;59616;52.170;5.386;2022-11-18T02:06:29;7.90;;;2.30;;
70800;SDS011;59616;52.170;5.386;2022-11-18T02:08:57;11.15;;;2.65;;
70800;SDS011;59616;52.170;5.386;2022-11-18T02:11:24;10.05;;;2.53;;
70800;SDS011;59616;52.170;5.386;2022-11-18T02:14:10;8.38;;;2.88;;
70800;SDS011;59616;52.170;5.386;2022-11-18T02:19:26;9.98;;;2.53;;
70800;SDS011;59616;52.170;5.386;2022-11-18T02:24:39;8.23;;;2.67;;
70800;SDS011;59616;52.170;5.386;2022-11-18T02:30:11;8.32;;;2.17;;
70800;SDS011;59616;52.170;5.386;2022-11-18T02:32:52;7.90;;;2.20;;
70800;SDS011;59616;52.170;5.386;2022-11-18T02:38:10;8.50;;;2.28;;
70800;SDS011;59616;52.170;5.386;2022-11-18T02:40:43;8.32;;;2.80;;
70800;SDS011;59616;52.170;5.386;2022-11-18T02:45:43;6.93;;;2.67;;
70800;SDS011;59616;52.170;5.386;2022-11-18T02:48:12;8.93;;;2.40;;
70800;SDS011;59616;52.170;5.386;2022-11-18T02:50:40;9.45;;;2.70;;
70800;SDS011;59616;52.170;5.386;2022-11-18T02:53:09;9.25;;;2.33;;
70800;SDS011;59616;52.170;5.386;2022-11-18T02:55:39;9.23;;;2.42;;
70800;SDS011;59616;52.170;5.386;2022-11-18T02:58:07;7.55;;;2.40;;
70800;SDS011;59616;52.170;5.386;2022-11-18T03:00:34;9.20;;;2.67;;
70800;SDS011;59616;52.170;5.386;2022-11-18T03:03:20;9.77;;;2.55;;
70800;SDS011;59616;52.170;5.386;2022-11-18T03:05:52;11.38;;;2.60;;
70800;SDS011;59616;52.170;5.386;2022-11-18T03:08:22;11.40;;;3.10;;
70800;SDS011;59616;52.170;5.386;2022-11-18T03:10:53;7.90;;;2.60;;
70800;SDS011;59616;52.170;5.386;2022-11-18T03:13:26;11.05;;;2.50;;
70800;SDS011;59616;52.170;5.386;2022-11-18T03:16:02;11.98;;;2.97;;
70800;SDS011;59616;52.170;5.386;2022-11-18T03:18:32;9.18;;;2.53;;
70800;SDS011;59616;52.170;5.386;2022-11-18T03:21:07;7.45;;;2.40;;
70800;SDS011;59616;52.170;5.386;2022-11-18T03:24:10;9.63;;;2.70;;
70800;SDS011;59616;52.170;5.386;2022-11-18T03:26:30;12.43;;;2.92;;
70800;SDS011;59616;52.170;5.386;2022-11-18T03:29:20;10.60;;;2.67;;
70800;SDS011;59616;52.170;5.386;2022-11-18T03:31:53;8.73;;;2.28;;
70800;SDS011;59616;52.170;5.386;2022-11-18T03:37:11;8.35;;;2.45;;
70800;SDS011;59616;52.170;5.386;2022-11-18T03:39:41;13.82;;;2.80;;
70800;SDS011;59616;52.170;5.386;2022-11-18T03:42:11;7.13;;;2.60;;
70800;SDS011;59616;52.170;5.386;2022-11-18T03:44:42;9.43;;;2.78;;
70800;SDS011;59616;52.170;5.386;2022-11-18T03:47:20;8.70;;;2.75;;
70800;SDS011;59616;52.170;5.386;2022-11-18T03:49:58;7.75;;;2.72;;
70800;SDS011;59616;52.170;5.386;2022-11-18T03:52:28;15.63;;;2.92;;
70800;SDS011;59616;52.170;5.386;2022-11-18T03:54:57;9.75;;;2.42;;
70800;SDS011;59616;52.170;5.386;2022-11-18T03:57:33;7.90;;;2.63;;
70800;SDS011;59616;52.170;5.386;2022-11-18T04:00:07;13.43;;;3.22;;
70800;SDS011;59616;52.170;5.386;2022-11-18T04:02:35;9.38;;;3.08;;
70800;SDS011;59616;52.170;5.386;2022-11-18T04:05:03;8.65;;;2.80;;
70800;SDS011;59616;52.170;5.386;2022-11-18T04:07:32;7.80;;;2.63;;
70800;SDS011;59616;52.170;5.386;2022-11-18T04:12:32;8.32;;;2.42;;
70800;SDS011;59616;52.170;5.386;2022-11-18T04:15:00;9.77;;;2.97;;
70800;SDS011;59616;52.170;5.386;2022-11-18T04:17:27;10.00;;;2.75;;
70800;SDS011;59616;52.170;5.386;2022-11-18T04:19:55;7.75;;;2.72;;
70800;SDS011;59616;52.170;5.386;2022-11-18T04:22:22;7.88;;;2.25;;
70800;SDS011;59616;52.170;5.386;2022-11-18T04:24:49;10.45;;;3.00;;
70800;SDS011;59616;52.170;5.386;2022-11-18T04:27:16;8.43;;;2.58;;
70800;SDS011;59616;52.170;5.386;2022-11-18T04:29:43;7.22;;;2.50;;
70800;SDS011;59616;52.170;5.386;2022-11-18T04:32:10;6.10;;;2.35;;
70800;SDS011;59616;52.170;5.386;2022-11-18T04:34:38;8.32;;;2.35;;
70800;SDS011;59616;52.170;5.386;2022-11-18T04:37:05;9.02;;;2.65;;
70800;SDS011;59616;52.170;5.386;2022-11-18T04:39:32;8.75;;;2.53;;
70800;SDS011;59616;52.170;5.386;2022-11-18T04:41:59;9.30;;;2.55;;
70800;SDS011;59616;52.170;5.386;2022-11-18T04:44:27;9.88;;;3.22;;
70800;SDS011;59616;52.170;5.386;2022-11-18T04:46:55;9.32;;;2.92;;
70800;SDS011;59616;52.170;5.386;2022-11-18T04:49:23;7.45;;;2.08;;
70800;SDS011;59616;52.170;5.386;2022-11-18T04:51:51;9.55;;;2.55;;
70800;SDS011;59616;52.170;5.386;2022-11-18T04:54:18;10.32;;;2.80;;
70800;SDS011;59616;52.170;5.386;2022-11-18T04:56:46;10.65;;;2.70;;
70800;SDS011;59616;52.170;5.386;2022-11-18T04:59:16;7.50;;;2.58;;
70800;SDS011;59616;52.170;5.386;2022-11-18T05:01:44;9.25;;;2.35;;
70800;SDS011;59616;52.170;5.386;2022-11-18T05:04:16;8.43;;;2.38;;
70800;SDS011;59616;52.170;5.386;2022-11-18T05:06:43;9.90;;;2.65;;
70800;SDS011;59616;52.170;5.386;2022-11-18T05:09:11;7.25;;;2.60;;
70800;SDS011;59616;52.170;5.386;2022-11-18T05:11:38;8.40;;;2.63;;
70800;SDS011;59616;52.170;5.386;2022-11-18T05:14:27;7.25;;;2.33;;
70800;SDS011;59616;52.170;5.386;2022-11-18T05:16:55;8.93;;;2.88;;
70800;SDS011;59616;52.170;5.386;2022-11-18T05:19:22;8.15;;;2.80;;
70800;SDS011;59616;52.170;5.386;2022-11-18T05:21:50;8.27;;;2.67;;
70800;SDS011;59616;52.170;5.386;2022-11-18T05:24:17;8.68;;;2.72;;
70800;SDS011;59616;52.170;5.386;2022-11-18T05:26:45;9.57;;;2.92;;
70800;SDS011;59616;52.170;5.386;2022-11-18T05:29:12;10.02;;;2.47;;
70800;SDS011;59616;52.170;5.386;2022-11-18T05:31:40;8.43;;;2.80;;
70800;SDS011;59616;52.170;5.386;2022-11-18T05:34:07;8.20;;;2.60;;
70800;SDS011;59616;52.170;5.386;2022-11-18T05:36:34;11.57;;;2.83;;
70800;SDS011;59616;52.170;5.386;2022-11-18T05:39:01;8.85;;;2.78;;
70800;SDS011;59616;52.170;5.386;2022-11-18T05:41:28;13.23;;;2.83;;
70800;SDS011;59616;52.170;5.386;2022-11-18T05:44:14;9.07;;;2.50;;
70800;SDS011;59616;52.170;5.386;2022-11-18T05:46:42;8.93;;;2.88;;
70800;SDS011;59616;52.170;5.386;2022-11-18T05:49:09;8.25;;;2.80;;
70800;SDS011;59616;52.170;5.386;2022-11-18T05:51:36;7.80;;;2.97;;
70800;SDS011;59616;52.170;5.386;2022-11-18T05:54:04;11.00;;;3.03;;
70800;SDS011;59616;52.170;5.386;2022-11-18T05:56:37;7.78;;;2.50;;
70800;SDS011;59616;52.170;5.386;2022-11-18T05:59:04;8.27;;;2.85;;
70800;SDS011;59616;52.170;5.386;2022-11-18T06:09:25;10.75;;;2.83;;
70800;SDS011;59616;52.170;5.386;2022-11-18T06:11:55;8.80;;;2.58;;
70800;SDS011;59616;52.170;5.386;2022-11-18T06:14:24;8.85;;;2.95;;
70800;SDS011;59616;52.170;5.386;2022-11-18T06:16:54;10.45;;;2.70;;
70800;SDS011;59616;52.170;5.386;2022-11-18T06:19:22;8.45;;;2.90;;
70800;SDS011;59616;52.170;5.386;2022-11-18T06:21:50;9.02;;;3.22;;
70800;SDS011;59616;52.170;5.386;2022-11-18T06:24:17;9.65;;;3.15;;
70800;SDS011;59616;52.170;5.386;2022-11-18T06:26:44;8.55;;;2.97;;
70800;SDS011;59616;52.170;5.386;2022-11-18T06:29:12;8.77;;;2.80;;
70800;SDS011;59616;52.170;5.386;2022-11-18T06:31:43;8.02;;;2.83;;
70800;SDS011;59616;52.170;5.386;2022-11-18T06:34:10;13.00;;;3.50;;
70800;SDS011;59616;52.170;5.386;2022-11-18T06:36:37;13.93;;;4.28;;
70800;SDS011;59616;52.170;5.386;2022-11-18T06:39:04;12.75;;;4.40;;
70800;SDS011;59616;52.170;5.386;2022-11-18T06:41:32;12.98;;;3.95;;
70800;SDS011;59616;52.170;5.386;2022-11-18T06:43:59;11.98;;;4.18;;
70800;SDS011;59616;52.170;5.386;2022-11-18T06:46:26;12.90;;;4.18;;
70800;SDS011;59616;52.170;5.386;2022-11-18T06:49:12;13.65;;;3.95;;
70800;SDS011;59616;52.170;5.386;2022-11-18T06:51:40;10.48;;;3.38;;
70800;SDS011;59616;52.170;5.386;2022-11-18T06:54:07;11.30;;;3.53;;
70800;SDS011;59616;52.170;5.386;2022-11-18T06:56:36;10.23;;;3.60;;
70800;SDS011;59616;52.170;5.386;2022-11-18T06:59:03;9.90;;;3.17;;
70800;SDS011;59616;52.170;5.386;2022-11-18T07:01:33;11.38;;;3.30;;
70800;SDS011;59616;52.170;5.386;2022-11-18T07:04:00;10.70;;;3.15;;
70800;SDS011;59616;52.170;5.386;2022-11-18T07:06:29;11.07;;;3.40;;
70800;SDS011;59616;52.170;5.386;2022-11-18T07:08:58;9.77;;;3.40;;
70800;SDS011;59616;52.170;5.386;2022-11-18T07:11:26;11.02;;;3.28;;
70800;SDS011;59616;52.170;5.386;2022-11-18T07:13:53;11.48;;;3.25;;
70800;SDS011;59616;52.170;5.386;2022-11-18T07:16:24;9.52;;;3.13;;
70800;SDS011;59616;52.170;5.386;2022-11-18T07:18:52;11.80;;;3.40;;
70800;SDS011;59616;52.170;5.386;2022-11-18T07:21:20;9.50;;;3.03;;
70800;SDS011;59616;52.170;5.386;2022-11-18T07:23:48;9.98;;;3.28;;
70800;SDS011;59616;52.170;5.386;2022-11-18T07:26:15;11.82;;;3.65;;
70800;SDS011;59616;52.170;5.386;2022-11-18T07:28:42;11.27;;;3.50;;
70800;SDS011;59616;52.170;5.386;2022-11-18T07:31:13;10.82;;;3.63;;
70800;SDS011;59616;52.170;5.386;2022-11-18T07:33:41;11.73;;;3.58;;
70800;SDS011;59616;52.170;5.386;2022-11-18T07:36:12;8.05;;;3.05;;
70800;SDS011;59616;52.170;5.386;2022-11-18T07:38:40;9.60;;;3.05;;
70800;SDS011;59616;52.170;5.386;2022-11-18T07:41:17;9.35;;;3.42;;
70800;SDS011;59616;52.170;5.386;2022-11-18T07:43:45;12.43;;;3.40;;
70800;SDS011;59616;52.170;5.386;2022-11-18T07:46:14;13.07;;;3.90;;
70800;SDS011;59616;52.170;5.386;2022-11-18T07:48:42;13.02;;;3.70;;
70800;SDS011;59616;52.170;5.386;2022-11-18T07:51:09;10.88;;;3.38;;
70800;SDS011;59616;52.170;5.386;2022-11-18T07:53:37;13.02;;;3.55;;
70800;SDS011;59616;52.170;5.386;2022-11-18T07:56:04;10.93;;;3.55;;
70800;SDS011;59616;52.170;5.386;2022-11-18T07:58:32;9.48;;;3.33;;
70800;SDS011;59616;52.170;5.386;2022-11-18T08:01:05;9.82;;;3.35;;
70800;SDS011;59616;52.170;5.386;2022-11-18T08:03:32;9.02;;;3.42;;
70800;SDS011;59616;52.170;5.386;2022-11-18T08:06:00;9.30;;;3.03;;
70800;SDS011;59616;52.170;5.386;2022-11-18T08:08:28;9.38;;;3.20;;
70800;SDS011;59616;52.170;5.386;2022-11-18T08:10:58;9.60;;;3.00;;
70800;SDS011;59616;52.170;5.386;2022-11-18T08:13:26;7.22;;;2.53;;
70800;SDS011;59616;52.170;5.386;2022-11-18T08:15:53;11.27;;;3.35;;
70800;SDS011;59616;52.170;5.386;2022-11-18T08:18:21;8.52;;;3.13;;
70800;SDS011;59616;52.170;5.386;2022-11-18T08:20:49;8.82;;;3.17;;
70800;SDS011;59616;52.170;5.386;2022-11-18T08:23:16;10.55;;;3.20;;
70800;SDS011;59616;52.170;5.386;2022-11-18T08:25:44;7.70;;;2.63;;
70800;SDS011;59616;52.170;5.386;2022-11-18T08:28:12;8.63;;;3.05;;
70800;SDS011;59616;52.170;5.386;2022-11-18T08:30:40;10.35;;;3.05;;
70800;SDS011;59616;52.170;5.386;2022-11-18T08:33:07;10.50;;;3.03;;
70800;SDS011;59616;52.170;5.386;2022-11-18T08:35:34;11.48;;;3.03;;
70800;SDS011;59616;52.170;5.386;2022-11-18T08:38:01;9.77;;;3.10;;
70800;SDS011;59616;52.170;5.386;2022-11-18T08:40:29;8.80;;;3.25;;
70800;SDS011;59616;52.170;5.386;2022-11-18T08:42:56;10.85;;;3.30;;
70800;SDS011;59616;52.170;5.386;2022-11-18T08:45:23;10.20;;;3.10;;
70800;SDS011;59616;52.170;5.386;2022-11-18T08:47:50;8.45;;;2.70;;
70800;SDS011;59616;52.170;5.386;2022-11-18T08:50:17;9.45;;;2.92;;
70800;SDS011;59616;52.170;5.386;2022-11-18T08:52:44;7.72;;;2.80;;
70800;SDS011;59616;52.170;5.386;2022-11-18T08:55:12;10.35;;;2.80;;
70800;SDS011;59616;52.170;5.386;2022-11-18T08:57:39;10.15;;;2.97;;
70800;SDS011;59616;52.170;5.386;2022-11-18T09:00:06;7.22;;;2.53;;
70800;SDS011;59616;52.170;5.386;2022-11-18T09:02:33;9.60;;;2.75;;
70800;SDS011;59616;52.170;5.386;2022-11-18T09:05:00;10.43;;;3.10;;
70800;SDS011;59616;52.170;5.386;2022-11-18T09:07:28;7.82;;;2.30;;
70800;SDS011;59616;52.170;5.386;2022-11-18T09:09:55;8.23;;;2.63;;
70800;SDS011;59616;52.170;5.386;2022-11-18T09:12:22;7.50;;;2.38;;
70800;SDS011;59616;52.170;5.386;2022-11-18T09:14:49;9.18;;;2.40;;
70800;SDS011;59616;52.170;5.386;2022-11-18T09:17:37;8.13;;;2.28;;
70800;SDS011;59616;52.170;5.386;2022-11-18T09:20:04;9.82;;;2.80;;
70800;SDS011;59616;52.170;5.386;2022-11-18T09:22:34;9.20;;;2.72;;
70800;SDS011;59616;52.170;5.386;2022-11-18T09:25:01;10.32;;;3.28;;
70800;SDS011;59616;52.170;5.386;2022-11-18T09:27:28;11.93;;;2.60;;
70800;SDS011;59616;52.170;5.386;2022-11-18T09:29:56;6.85;;;2.80;;
70800;SDS011;59616;52.170;5.386;2022-11-18T09:32:23;8.23;;;2.47;;
70800;SDS011;59616;52.170;5.386;2022-11-18T09:34:50;7.07;;;2.30;;
70800;SDS011;59616;52.170;5.386;2022-11-18T09:37:17;12.52;;;2.72;;
70800;SDS011;59616;52.170;5.386;2022-11-18T09:39:45;8.88;;;2.80;;
70800;SDS011;59616;52.170;5.386;2022-11-18T09:47:29;9.27;;;2.80;;
70800;SDS011;59616;52.170;5.386;2022-11-18T09:50:00;9.30;;;2.67;;
70800;SDS011;59616;52.170;5.386;2022-11-18T09:55:21;8.93;;;2.63;;
70800;SDS011;59616;52.170;5.386;2022-11-18T09:57:50;7.85;;;2.25;;
70800;SDS011;59616;52.170;5.386;2022-11-18T10:00:22;11.75;;;2.55;;
70800;SDS011;59616;52.170;5.386;2022-11-18T10:03:03;7.18;;;2.50;;
70800;SDS011;59616;52.170;5.386;2022-11-18T10:05:37;7.95;;;2.38;;
70800;SDS011;59616;52.170;5.386;2022-11-18T10:08:20;7.50;;;2.42;;
70800;SDS011;59616;52.170;5.386;2022-11-18T10:10:50;11.38;;;2.92;;
70800;SDS011;59616;52.170;5.386;2022-11-18T10:13:27;5.85;;;2.15;;
70800;SDS011;59616;52.170;5.386;2022-11-18T10:23:50;9.63;;;2.83;;
70800;SDS011;59616;52.170;5.386;2022-11-18T10:26:30;8.60;;;2.50;;
70800;SDS011;59616;52.170;5.386;2022-11-18T10:28:58;7.07;;;2.50;;
70800;SDS011;59616;52.170;5.386;2022-11-18T10:31:25;11.25;;;2.47;;
70800;SDS011;59616;52.170;5.386;2022-11-18T10:33:59;8.93;;;2.35;;
70800;SDS011;59616;52.170;5.386;2022-11-18T10:36:30;9.57;;;2.78;;
70800;SDS011;59616;52.170;5.386;2022-11-18T10:39:12;11.23;;;2.70;;
70800;SDS011;59616;52.170;5.386;2022-11-18T10:41:50;13.15;;;2.80;;
70800;SDS011;59616;52.170;5.386;2022-11-18T10:44:37;8.85;;;2.65;;
70800;SDS011;59616;52.170;5.386;2022-11-18T10:47:15;9.77;;;2.60;;
70800;SDS011;59616;52.170;5.386;2022-11-18T10:49:43;10.55;;;3.05;;
70800;SDS011;59616;52.170;5.386;2022-11-18T10:52:13;8.63;;;2.30;;
70800;SDS011;59616;52.170;5.386;2022-11-18T10:54:41;7.43;;;2.63;;
70800;SDS011;59616;52.170;5.386;2022-11-18T10:59:49;9.15;;;2.78;;
70800;SDS011;59616;52.170;5.386;2022-11-18T11:02:28;10.00;;;3.00;;
70800;SDS011;59616;52.170;5.386;2022-11-18T11:04:57;10.73;;;3.20;;
70800;SDS011;59616;52.170;5.386;2022-11-18T11:07:28;9.10;;;2.72;;
70800;SDS011;59616;52.170;5.386;2022-11-18T11:12:27;9.98;;;3.28;;
70800;SDS011;59616;52.170;5.386;2022-11-18T11:14:59;10.10;;;2.88;;
70800;SDS011;59616;52.170;5.386;2022-11-18T11:17:30;8.90;;;2.63;;
70800;SDS011;59616;52.170;5.386;2022-11-18T11:20:03;11.10;;;3.13;;
70800;SDS011;59616;52.170;5.386;2022-11-18T11:22:32;12.30;;;2.80;;
70800;SDS011;59616;52.170;5.386;2022-11-18T11:24:59;8.02;;;3.08;;
70800;SDS011;59616;52.170;5.386;2022-11-18T11:30:17;8.55;;;2.90;;
70800;SDS011;59616;52.170;5.386;2022-11-18T11:32:51;13.00;;;2.72;;
70800;SDS011;59616;52.170;5.386;2022-11-18T11:35:22;10.80;;;2.75;;
70800;SDS011;59616;52.170;5.386;2022-11-18T11:45:46;8.50;;;2.80;;
70800;SDS011;59616;52.170;5.386;2022-11-18T11:53:45;8.52;;;3.08;;
70800;SDS011;59616;52.170;5.386;2022-11-18T11:56:25;12.63;;;2.88;;
70800;SDS011;59616;52.170;5.386;2022-11-18T11:59:39;8.70;;;2.80;;
70800;SDS011;59616;52.170;5.386;2022-11-18T12:04:50;9.60;;;3.05;;
70800;SDS011;59616;52.170;5.386;2022-11-18T12:07:22;10.68;;;3.33;;
70800;SDS011;59616;52.170;5.386;2022-11-18T12:15:47;12.30;;;3.45;;
70800;SDS011;59616;52.170;5.386;2022-11-18T12:17:52;11.23;;;3.35;;
70800;SDS011;59616;52.170;5.386;2022-11-18T12:23:13;9.02;;;3.38;;
70800;SDS011;59616;52.170;5.386;2022-11-18T12:36:23;10.35;;;3.28;;
70800;SDS011;59616;52.170;5.386;2022-11-18T12:38:50;12.25;;;3.80;;
70800;SDS011;59616;52.170;5.386;2022-11-18T12:44:26;12.07;;;3.30;;
70800;SDS011;59616;52.170;5.386;2022-11-18T12:46:57;10.52;;;3.70;;
70800;SDS011;59616;52.170;5.386;2022-11-18T12:51:59;9.80;;;3.42;;
70800;SDS011;59616;52.170;5.386;2022-11-18T12:54:33;10.73;;;3.85;;
70800;SDS011;59616;52.170;5.386;2022-11-18T12:57:09;13.18;;;3.78;;
70800;SDS011;59616;52.170;5.386;2022-11-18T12:59:43;11.32;;;4.43;;
70800;SDS011;59616;52.170;5.386;2022-11-18T13:04:37;12.88;;;4.53;;
70800;SDS011;59616;52.170;5.386;2022-11-18T13:07:12;13.50;;;4.47;;
70800;SDS011;59616;52.170;5.386;2022-11-18T13:09:59;14.23;;;4.50;;
70800;SDS011;59616;52.170;5.386;2022-11-18T13:12:28;12.98;;;5.13;;
70800;SDS011;59616;52.170;5.386;2022-11-18T13:14:55;9.57;;;4.25;;
70800;SDS011;59616;52.170;5.386;2022-11-18T13:17:42;10.95;;;4.10;;
70800;SDS011;59616;52.170;5.386;2022-11-18T13:22:53;16.30;;;5.28;;
70800;SDS011;59616;52.170;5.386;2022-11-18T13:25:40;11.07;;;5.10;;
70800;SDS011;59616;52.170;5.386;2022-11-18T13:33:16;10.38;;;4.25;;
70800;SDS011;59616;52.170;5.386;2022-11-18T13:35:44;12.80;;;4.43;;
70800;SDS011;59616;52.170;5.386;2022-11-18T13:38:21;13.88;;;4.72;;
70800;SDS011;59616;52.170;5.386;2022-11-18T13:40:53;12.05;;;4.78;;
70800;SDS011;59616;52.170;5.386;2022-11-18T13:43:30;11.23;;;4.82;;
70800;SDS011;59616;52.170;5.386;2022-11-18T13:46:02;13.23;;;4.72;;
70800;SDS011;59616;52.170;5.386;2022-11-18T13:48:31;12.60;;;5.00;;
70800;SDS011;59616;52.170;5.386;2022-11-18T13:50:58;11.55;;;4.95;;
70800;SDS011;59616;52.170;5.386;2022-11-18T13:55:56;14.30;;;5.32;;
70800;SDS011;59616;52.170;5.386;2022-11-18T14:01:21;13.88;;;5.40;;
70800;SDS011;59616;52.170;5.386;2022-11-18T14:06:25;14.63;;;6.00;;
70800;SDS011;59616;52.170;5.386;2022-11-18T14:11:33;13.80;;;6.20;;
70800;SDS011;59616;52.170;5.386;2022-11-18T14:14:01;14.10;;;5.95;;
70800;SDS011;59616;52.170;5.386;2022-11-18T14:16:37;15.85;;;6.63;;
70800;SDS011;59616;52.170;5.386;2022-11-18T14:19:06;20.23;;;7.05;;
70800;SDS011;59616;52.170;5.386;2022-11-18T14:21:34;16.23;;;6.30;;
70800;SDS011;59616;52.170;5.386;2022-11-18T14:24:03;14.20;;;6.50;;
70800;SDS011;59616;52.170;5.386;2022-11-18T14:26:35;13.57;;;5.88;;
70800;SDS011;59616;52.170;5.386;2022-11-18T14:29:13;12.63;;;5.07;;
70800;SDS011;59616;52.170;5.386;2022-11-18T14:34:58;11.52;;;5.18;;
70800;SDS011;59616;52.170;5.386;2022-11-18T14:37:25;12.27;;;4.97;;
70800;SDS011;59616;52.170;5.386;2022-11-18T14:39:53;19.42;;;5.60;;
70800;SDS011;59616;52.170;5.386;2022-11-18T14:42:21;12.10;;;5.07;;
70800;SDS011;59616;52.170;5.386;2022-11-18T14:44:49;11.95;;;5.00;;
70800;SDS011;59616;52.170;5.386;2022-11-18T14:47:26;14.10;;;5.63;;
70800;SDS011;59616;52.170;5.386;2022-11-18T14:49:54;19.90;;;6.50;;
70800;SDS011;59616;52.170;5.386;2022-11-18T14:52:21;14.38;;;5.75;;
70800;SDS011;59616;52.170;5.386;2022-11-18T14:54:48;10.70;;;5.13;;
70800;SDS011;59616;52.170;5.386;2022-11-18T14:57:17;14.93;;;5.05;;
70800;SDS011;59616;52.170;5.386;2022-11-18T14:59:44;11.45;;;5.07;;
70800;SDS011;59616;52.170;5.386;2022-11-18T15:02:12;15.43;;;5.57;;
70800;SDS011;59616;52.170;5.386;2022-11-18T15:04:40;12.65;;;4.93;;
70800;SDS011;59616;52.170;5.386;2022-11-18T15:07:11;12.77;;;5.38;;
70800;SDS011;59616;52.170;5.386;2022-11-18T15:09:48;14.07;;;5.35;;
70800;SDS011;59616;52.170;5.386;2022-11-18T15:12:16;13.73;;;5.40;;
70800;SDS011;59616;52.170;5.386;2022-11-18T15:14:43;13.45;;;5.10;;
70800;SDS011;59616;52.170;5.386;2022-11-18T15:17:10;13.02;;;4.82;;
70800;SDS011;59616;52.170;5.386;2022-11-18T15:19:38;16.25;;;6.03;;
70800;SDS011;59616;52.170;5.386;2022-11-18T15:22:07;13.15;;;5.10;;
70800;SDS011;59616;52.170;5.386;2022-11-18T15:24:34;12.23;;;4.85;;
70800;SDS011;59616;52.170;5.386;2022-11-18T15:27:01;17.20;;;5.22;;
70800;SDS011;59616;52.170;5.386;2022-11-18T15:29:30;14.88;;;5.45;;
70800;SDS011;59616;52.170;5.386;2022-11-18T15:31:58;14.85;;;5.32;;
70800;SDS011;59616;52.170;5.386;2022-11-18T15:34:25;10.90;;;4.97;;
70800;SDS011;59616;52.170;5.386;2022-11-18T15:36:52;15.43;;;5.20;;
70800;SDS011;59616;52.170;5.386;2022-11-18T15:39:19;12.70;;;5.45;;
70800;SDS011;59616;52.170;5.386;2022-11-18T15:41:46;14.82;;;5.82;;
70800;SDS011;59616;52.170;5.386;2022-11-18T15:44:13;11.88;;;5.40;;
70800;SDS011;59616;52.170;5.386;2022-11-18T15:46:42;16.88;;;5.53;;
70800;SDS011;59616;52.170;5.386;2022-11-18T15:49:13;15.38;;;6.30;;
70800;SDS011;59616;52.170;5.386;2022-11-18T15:51:40;14.25;;;5.60;;
70800;SDS011;59616;52.170;5.386;2022-11-18T15:54:08;14.63;;;5.55;;
70800;SDS011;59616;52.170;5.386;2022-11-18T15:56:35;15.40;;;6.25;;
70800;SDS011;59616;52.170;5.386;2022-11-18T15:59:10;12.95;;;5.28;;
70800;SDS011;59616;52.170;5.386;2022-11-18T16:01:38;14.15;;;5.82;;
70800;SDS011;59616;52.170;5.386;2022-11-18T16:04:08;14.38;;;5.55;;
70800;SDS011;59616;52.170;5.386;2022-11-18T16:06:36;16.77;;;5.93;;
70800;SDS011;59616;52.170;5.386;2022-11-18T16:09:04;16.67;;;6.40;;
70800;SDS011;59616;52.170;5.386;2022-11-18T16:11:32;15.65;;;6.03;;
70800;SDS011;59616;52.170;5.386;2022-11-18T16:14:18;14.13;;;5.88;;
70800;SDS011;59616;52.170;5.386;2022-11-18T16:16:47;15.45;;;6.63;;
70800;SDS011;59616;52.170;5.386;2022-11-18T16:19:15;18.25;;;6.97;;
70800;SDS011;59616;52.170;5.386;2022-11-18T16:21:44;17.52;;;6.97;;
70800;SDS011;59616;52.170;5.386;2022-11-18T16:24:13;16.05;;;6.35;;
70800;SDS011;59616;52.170;5.386;2022-11-18T16:26:42;16.13;;;7.47;;
70800;SDS011;59616;52.170;5.386;2022-11-18T16:29:09;18.23;;;7.30;;
70800;SDS011;59616;52.170;5.386;2022-11-18T16:31:37;14.43;;;6.88;;
70800;SDS011;59616;52.170;5.386;2022-11-18T16:34:09;19.00;;;6.90;;
70800;SDS011;59616;52.170;5.386;2022-11-18T16:36:38;17.48;;;6.93;;
70800;SDS011;59616;52.170;5.386;2022-11-18T16:39:16;14.75;;;7.07;;
70800;SDS011;59616;52.170;5.386;2022-11-18T16:41:44;15.35;;;6.95;;
70800;SDS011;59616;52.170;5.386;2022-11-18T16:44:15;20.25;;;7.97;;
70800;SDS011;59616;52.170;5.386;2022-11-18T16:46:49;16.38;;;8.43;;
70800;SDS011;59616;52.170;5.386;2022-11-18T16:49:18;19.73;;;8.77;;
70800;SDS011;59616;52.170;5.386;2022-11-18T16:51:46;18.10;;;8.35;;
70800;SDS011;59616;52.170;5.386;2022-11-18T16:54:18;18.65;;;7.90;;
70800;SDS011;59616;52.170;5.386;2022-11-18T16:56:46;17.00;;;7.60;;